KMLS

Details ICAO KMLS (MLS)
Name Frank Wiley Fld
Region United States
Timezone America/Denver (UTC-6.0)
Plans Departing 17
Arriving 12
Stats Elevation 2,630 ft / 802 m (AMSL)
Location 46.427974° -105.886231°
Runways 2
Magnetic Variation 9.264° E
Sunrise 2018-05-21 11:24:49 UTC / 2018-05-21 05:24:49 Local
Sunset 2018-05-22 02:38:21 UTC / 2018-05-21 20:38:21 Local
Advertisement - Login to hide

Runways

ID Width Length Bearing (true) Bearing (mag) Surface Threshold Offset Overrun Length
04 75 ft / 23 m 5,672 ft / 1,729 m 51.83° 42.57° Asphalt 0 ft / 0 m 0 ft / 0 m
12 100 ft / 30 m 5,618 ft / 1,712 m 134.97° 125.71° Asphalt 0 ft / 0 m 0 ft / 0 m
22 75 ft / 23 m 5,672 ft / 1,729 m 231.85° 222.59° Asphalt 0 ft / 0 m 0 ft / 0 m
30 100 ft / 30 m 5,618 ft / 1,712 m 314.98° 305.72° Asphalt 0 ft / 0 m 0 ft / 0 m

Map

Weather


0- 5 10 15 20 25 30 35+ Temperature / ° C

Clouds and Precipitation
Forecast for 2018-05-21 18:00 UTC. Updated 2 hours ago

Ground ~20,000 ft ~40,000 ft Winds

METAR

KMLS 211653Z AUTO 14008KT 10SM CLR 19/10 A2990 RMK AO2 SLP115 T01890100

TAF

TAF KMLS 211120Z 2112/2212 15010KT P6SM SCT150

Frequencies

Recorded 135.57 MHz ASOS
Unicom 123.00 MHz CTAF/UNICOM
Warning: Do not use this data for real-world aviation or navigation. No guarantee of current accuracy is given.